Terminal Aerodrome Forecast
Issued by NWS

Home | Current Version | Previous Version | Text Only | Print | Product List | Glossary On
Versions: 1 2 3 4 5 6 7 8 9 10 11 12 13 14 15 16
000
FTUS46 KPDT 201700
TAFRDM
TAF
KRDM 201729Z 2018/2118 21009KT P6SM VCSH SCT035 BKN050
     FM202100 29011G18KT P6SM -SHRA BKN050 BKN100
     FM210300 16007KT P6SM SCT100
     FM210900 17007KT P6SM SCT040 BKN070=

USA.gov is the U.S. government's official web portal to all federal, state and local government web resources and services.